Olive Branch, Mississippi
Current Conditions -  °F | °C
As of 5:35 AM on Thursday 27 Nov 2014 (Local Time) from KOLV Reporting Station
Overcast Overcast  
Wind Chill: 28°   Ceiling: 3000
Heat Index: 37°   Visibility: 10mi
Dew Point: 32°   Wind: 17mph
Humidity: 81%   Direction: 340°NNW
Pressure: 30.37"   Gusts: 23mph
Location:  34.96°N, 89.83°W
Report Text: KOLV 271135Z AUTO 34015G20KT 10SM OVC030 03/00 A3037 RMK A01 P000
Loading
Personal Weather Stations






























Interactive Weather Map New forecast layout! Learn more

10-Day Weather Forecast

Advertisements
Track Severe Weather on mobile